Terminal Aerodrome Forecast
Issued by NWS

Home | Current Version | Previous Version | Text Only | Print | Product List | Glossary Off
Versions: 1 2 3 4 5 6 7 8 9 10 11 12 13 14 15 16 17 18 19 20 21 22

000
FTUS43 KMPX 262001 AAA
TAFRWF
TAF AMD
KRWF 262001Z 2620/2718 06007KT P6SM OVC009
     FM262200 07011KT P6SM OVC015
     FM270200 07014G21KT P6SM OVC025
     FM270600 09015G24KT 5SM -RA BR SCT025 OVC050
     FM271200 08018G26KT 3SM -RA BR OVC035=

USA.gov is the U.S. government's official web portal to all federal, state and local government web resources and services.